Time;durP1;ratioP1;P1;durP2;ratioP2;P2;SDS_P1;SDS_P2;PMS_P1;PMS_P2;Temp;Humidity;BMP_temperature;BMP_pressure;BME280_temperature;BME280_humidity;BME280_pressure;Samples;Min_cycle;Max_cycle;Signal;HPM_P1;HPM_P2
2023/10/27 00:00:15;;;;;;;122.30;4.65;;;;;;;2.05;100.00;97234.31;5158363;27;20146;-63
2023/10/27 00:02:42;;;;;;;128.98;4.13;;;;;;;2.18;100.00;97226.84;5157868;27;20404;-63
2023/10/27 00:05:08;;;;;;;33.20;2.95;;;;;;;1.98;100.00;97223.38;5157395;27;20294;-63
2023/10/27 00:07:34;;;;;;;153.07;6.43;;;;;;;2.19;100.00;97214.91;5158118;27;20072;-63
2023/10/27 00:10:00;;;;;;;60.78;3.28;;;;;;;2.09;100.00;97200.03;5158025;27;20057;-63
2023/10/27 00:12:26;;;;;;;33.88;2.28;;;;;;;2.27;100.00;97200.41;5158140;27;20078;-63
2023/10/27 00:14:52;;;;;;;34.30;2.35;;;;;;;2.30;100.00;97191.56;5157715;27;20443;-63
2023/10/27 00:17:18;;;;;;;26.77;2.17;;;;;;;2.19;100.00;97187.88;5158163;27;20133;-63
2023/10/27 00:19:44;;;;;;;63.72;2.55;;;;;;;2.23;100.00;97187.94;5157676;27;20146;-63
2023/10/27 00:22:10;;;;;;;57.85;2.47;;;;;;;2.27;100.00;97194.22;5158126;27;20058;-62
2023/10/27 00:24:36;;;;;;;49.80;2.20;;;;;;;2.15;100.00;97194.34;5157574;27;20242;-63
2023/10/27 00:27:02;;;;;;;46.15;2.03;;;;;;;2.42;100.00;97187.91;5158213;27;20062;-63
2023/10/27 00:29:28;;;;;;;15.82;1.95;;;;;;;2.49;100.00;97185.31;5157521;27;20382;-63
2023/10/27 00:31:54;;;;;;;7.70;2.58;;;;;;;2.74;100.00;97177.66;5157550;27;20137;-63
2023/10/27 00:34:20;;;;;;;22.38;2.28;;;;;;;2.44;100.00;97184.84;5157880;27;20086;-63
2023/10/27 00:36:48;;;;;;;51.80;2.67;;;;;;;2.59;100.00;97186.66;5157843;27;20077;-63
2023/10/27 00:39:14;;;;;;;20.10;2.42;;;;;;;2.57;100.00;97178.91;5157846;27;20141;-63
2023/10/27 00:41:39;;;;;;;9.35;1.90;;;;;;;2.45;100.00;97187.19;5157554;27;20430;-63
2023/10/27 00:44:05;;;;;;;20.17;1.83;;;;;;;2.45;100.00;97181.78;5157542;27;20133;-62
2023/10/27 00:46:32;;;;;;;19.63;1.75;;;;;;;2.10;100.00;97184.63;5157497;27;20097;-63
2023/10/27 00:48:58;;;;;;;53.10;2.78;;;;;;;2.48;100.00;97164.06;5157761;27;20133;-62
2023/10/27 00:51:24;;;;;;;27.40;2.30;;;;;;;2.59;100.00;97170.41;5157427;27;20154;-63
2023/10/27 00:53:51;;;;;;;25.92;2.22;;;;;;;2.57;100.00;97172.72;5157745;27;20043;-63
2023/10/27 00:56:18;;;;;;;17.92;1.95;;;;;;;2.59;100.00;97165.00;5157256;27;20149;-63
2023/10/27 00:58:44;;;;;;;20.08;2.15;;;;;;;2.64;100.00;97170.13;5157697;27;20057;-63
2023/10/27 01:01:12;;;;;;;42.17;3.63;;;;;;;2.67;100.00;97164.00;5157440;27;20137;-63
2023/10/27 01:03:38;;;;;;;23.90;2.35;;;;;;;2.64;100.00;97163.94;5157397;27;20046;-63
2023/10/27 01:06:05;;;;;;;19.65;2.22;;;;;;;2.86;100.00;97171.25;5157150;27;20046;-63
2023/10/27 01:08:30;;;;;;;14.77;1.77;;;;;;;2.72;100.00;97162.91;5157251;27;20086;-63
2023/10/27 01:10:57;;;;;;;6.38;1.88;;;;;;;2.74;100.00;97174.16;5157369;27;20426;-63
2023/10/27 01:13:23;;;;;;;4.15;1.50;;;;;;;3.04;100.00;97185.06;5156997;27;20387;-63
2023/10/27 01:15:49;;;;;;;2.65;1.50;;;;;;;2.90;100.00;97192.94;5157660;27;20081;-63
2023/10/27 01:18:15;;;;;;;2.42;1.38;;;;;;;2.73;100.00;97191.50;5160569;27;20047;-63
2023/10/27 01:20:41;;;;;;;1.00;0.90;;;;;;;2.76;100.00;97197.00;5160927;27;20472;-63
2023/10/27 01:23:07;;;;;;;1.80;1.20;;;;;;;3.13;100.00;97199.13;5160538;27;20047;-63
2023/10/27 01:25:33;;;;;;;2.22;1.13;;;;;;;3.03;100.00;97197.84;5160779;27;20110;-63
2023/10/27 01:28:00;;;;;;;3.45;1.20;;;;;;;3.15;100.00;97209.59;5160269;27;20133;-62
2023/10/27 01:30:27;;;;;;;2.95;1.65;;;;;;;3.22;100.00;97215.91;5160556;27;20062;-62
2023/10/27 01:32:53;;;;;;;2.47;1.52;;;;;;;3.26;100.00;97224.84;5160591;27;20047;-62
2023/10/27 01:35:19;;;;;;;7.70;1.30;;;;;;;3.25;100.00;97236.06;5160406;27;20050;-62
2023/10/27 01:37:45;;;;;;;2.22;1.48;;;;;;;3.34;100.00;97236.59;5160508;27;20057;-62
2023/10/27 01:40:12;;;;;;;2.28;1.60;;;;;;;3.24;100.00;97250.75;5160247;27;20320;-63
2023/10/27 01:42:38;;;;;;;2.22;1.75;;;;;;;3.18;100.00;97241.38;5160389;27;20315;-63
2023/10/27 01:45:05;;;;;;;1.85;1.45;;;;;;;3.15;100.00;97233.97;5160129;27;20050;-63
2023/10/27 01:47:31;;;;;;;2.40;1.55;;;;;;;3.04;100.00;97239.22;5160495;27;20051;-63
2023/10/27 01:49:56;;;;;;;1.80;1.55;;;;;;;3.30;100.00;97227.66;5159961;27;20047;-63
2023/10/27 01:52:22;;;;;;;1.75;1.52;;;;;;;3.34;100.00;97230.41;5160453;27;20049;-63
2023/10/27 01:54:48;;;;;;;2.67;1.88;;;;;;;3.24;100.00;97243.41;5159868;27;20054;-63
2023/10/27 01:57:15;;;;;;;4.00;1.75;;;;;;;3.45;100.00;97237.53;5160529;27;20046;-63
2023/10/27 01:59:41;;;;;;;2.13;1.35;;;;;;;3.29;100.00;97245.00;5159851;27;20141;-63
2023/10/27 02:02:07;;;;;;;2.42;1.55;;;;;;;3.54;100.00;97245.41;5160090;27;20078;-63
2023/10/27 02:04:35;;;;;;;2.40;1.40;;;;;;;3.57;100.00;97258.22;5159887;27;20043;-63
2023/10/27 02:07:01;;;;;;;3.15;1.90;;;;;;;3.25;100.00;97255.03;5159736;27;20050;-63
2023/10/27 02:09:26;;;;;;;2.72;1.60;;;;;;;3.46;100.00;97251.84;5160058;27;20191;-63
2023/10/27 02:11:52;;;;;;;3.97;1.73;;;;;;;3.40;100.00;97256.81;5159788;27;20055;-63
2023/10/27 02:14:19;;;;;;;2.20;1.70;;;;;;;3.66;100.00;97253.31;5160189;27;20043;-63
2023/10/27 02:16:45;;;;;;;2.85;1.70;;;;;;;3.93;100.00;97251.38;5159646;27;20141;-63
2023/10/27 02:19:13;;;;;;;2.70;1.45;;;;;;;3.82;100.00;97274.81;5159984;27;20311;-63
2023/10/27 02:21:39;;;;;;;2.70;1.55;;;;;;;3.90;100.00;97281.91;5159575;27;20050;-63
2023/10/27 02:24:05;;;;;;;3.17;2.05;;;;;;;3.96;100.00;97293.22;5159858;27;20047;-63
2023/10/27 02:26:31;;;;;;;2.42;1.73;;;;;;;3.88;100.00;97297.75;5158984;27;20059;-63
2023/10/27 02:28:57;;;;;;;2.50;1.80;;;;;;;4.08;100.00;97308.50;5159154;27;20436;-63
2023/10/27 02:31:24;;;;;;;1.98;1.60;;;;;;;4.05;100.00;97315.41;5159625;27;20057;-63
2023/10/27 02:33:50;;;;;;;2.25;1.55;;;;;;;4.07;100.00;97325.91;5159533;27;20113;-63
2023/10/27 02:36:16;;;;;;;2.08;1.63;;;;;;;4.13;100.00;97346.13;5159673;27;20058;-63
2023/10/27 02:38:42;;;;;;;2.67;1.90;;;;;;;4.05;100.00;97350.66;5159144;27;20379;-63
2023/10/27 02:41:08;;;;;;;2.08;1.33;;;;;;;4.18;100.00;97354.72;5159553;27;20075;-63
2023/10/27 02:43:34;;;;;;;2.08;1.88;;;;;;;4.08;100.00;97360.00;5159162;27;20078;-63
2023/10/27 02:46:01;;;;;;;2.00;1.55;;;;;;;4.13;100.00;97363.19;5159346;27;20060;-63
2023/10/27 02:48:27;;;;;;;2.58;1.70;;;;;;;4.09;100.00;97370.47;5159246;27;20374;-63
2023/10/27 02:50:53;;;;;;;2.63;1.42;;;;;;;4.17;100.00;97365.97;5159557;27;20339;-64
2023/10/27 02:53:19;;;;;;;1.98;1.50;;;;;;;4.12;100.00;97375.19;5158971;27;20088;-63
2023/10/27 02:55:45;;;;;;;3.45;1.85;;;;;;;4.20;100.00;97376.84;5159407;27;20086;-63
2023/10/27 02:58:11;;;;;;;3.10;1.80;;;;;;;4.16;100.00;97376.00;5159189;27;20324;-63
2023/10/27 03:00:39;;;;;;;2.00;1.73;;;;;;;4.16;100.00;97377.94;5158843;27;20053;-63
2023/10/27 03:03:05;;;;;;;2.63;1.58;;;;;;;4.25;100.00;97375.75;5159165;27;20085;-64
2023/10/27 03:05:32;;;;;;;2.88;1.80;;;;;;;4.21;100.00;97374.91;5158638;27;20483;-63
2023/10/27 03:07:58;;;;;;;4.07;2.08;;;;;;;4.01;100.00;97377.75;5158903;27;20495;-63
2023/10/27 03:10:24;;;;;;;2.10;1.50;;;;;;;4.15;100.00;97374.44;5158582;27;20042;-63
2023/10/27 03:12:50;;;;;;;3.17;1.95;;;;;;;3.97;100.00;97370.72;5158925;27;20055;-63
2023/10/27 03:15:16;;;;;;;3.20;1.95;;;;;;;4.10;100.00;97363.13;5158770;27;20084;-64
2023/10/27 03:17:41;;;;;;;2.13;1.52;;;;;;;3.73;100.00;97364.53;5159040;27;20129;-63
2023/10/27 03:20:08;;;;;;;4.10;1.90;;;;;;;3.98;100.00;97340.50;5158515;27;20046;-63
2023/10/27 03:22:35;;;;;;;1.98;1.77;;;;;;;4.14;100.00;97336.84;5159031;27;20078;-64
2023/10/27 03:25:01;;;;;;;3.50;2.05;;;;;;;3.86;100.00;97346.13;5158332;27;20137;-63
2023/10/27 03:27:27;;;;;;;3.85;2.42;;;;;;;3.76;100.00;97327.78;5158687;27;20051;-63
2023/10/27 03:29:53;;;;;;;9.00;2.20;;;;;;;3.88;100.00;97324.88;5158714;27;20053;-63
2023/10/27 03:32:19;;;;;;;13.65;2.78;;;;;;;3.99;100.00;97309.53;5158535;27;20138;-63
2023/10/27 03:34:45;;;;;;;94.85;3.88;;;;;;;4.03;100.00;97314.22;5158470;27;20081;-63
2023/10/27 03:37:11;;;;;;;19.23;2.80;;;;;;;3.86;100.00;97323.66;5158561;27;20214;-63
2023/10/27 03:39:39;;;;;;;23.58;2.33;;;;;;;3.73;100.00;97299.50;5157517;27;20137;-63
2023/10/27 03:42:05;;;;;;;7.05;2.30;;;;;;;3.99;100.00;97284.34;5158160;27;20058;-63
2023/10/27 03:44:31;;;;;;;11.45;2.38;;;;;;;3.66;100.00;97282.34;5158410;27;20408;-62
2023/10/27 03:46:57;;;;;;;6.10;2.55;;;;;;;3.65;100.00;97262.59;5158214;27;20095;-63
2023/10/27 03:49:22;;;;;;;25.85;2.58;;;;;;;3.86;100.00;97261.31;5158444;27;20495;-63
2023/10/27 03:51:48;;;;;;;11.38;2.50;;;;;;;3.93;100.00;97258.69;5158114;27;20078;-63
2023/10/27 03:54:14;;;;;;;27.15;2.33;;;;;;;3.92;100.00;97265.28;5158491;27;20141;-63
2023/10/27 03:56:41;;;;;;;4.07;2.42;;;;;;;3.82;100.00;97265.91;5157922;27;20332;-63
2023/10/27 03:59:07;;;;;;;15.50;3.25;;;;;;;4.07;100.00;97263.56;5158253;27;20065;-63
2023/10/27 04:01:33;;;;;;;7.93;2.90;;;;;;;4.15;100.00;97249.69;5157963;27;20393;-63
2023/10/27 04:03:59;;;;;;;24.80;3.05;;;;;;;3.93;100.00;97255.97;5158093;27;20054;-64
2023/10/27 04:06:25;;;;;;;40.30;3.30;;;;;;;4.18;100.00;97259.81;5157965;27;20062;-63
2023/10/27 04:08:51;;;;;;;16.17;3.10;;;;;;;4.15;100.00;97274.09;5157782;27;20050;-64
2023/10/27 04:11:16;;;;;;;7.47;2.65;;;;;;;4.16;100.00;97270.22;5158146;27;20085;-63
2023/10/27 04:13:43;;;;;;;15.18;2.35;;;;;;;3.68;100.00;97267.28;5157862;27;20120;-64
2023/10/27 04:16:09;;;;;;;22.73;3.15;;;;;;;3.89;100.00;97244.31;5158283;27;20183;-63
2023/10/27 04:18:35;;;;;;;66.95;5.28;;;;;;;3.98;100.00;97234.00;5157795;27;20277;-64
2023/10/27 04:21:02;;;;;;;28.02;2.80;;;;;;;4.09;100.00;97234.13;5158099;27;20074;-64
2023/10/27 04:23:28;;;;;;;9.95;3.28;;;;;;;4.07;100.00;97234.50;5157681;27;20050;-63
2023/10/27 04:25:54;;;;;;;14.75;2.70;;;;;;;3.91;100.00;97247.47;5158039;27;20471;-63
2023/10/27 04:28:21;;;;;;;20.30;3.25;;;;;;;4.18;100.00;97235.41;5157864;27;20047;-63
2023/10/27 04:30:48;;;;;;;31.92;2.92;;;;;;;4.23;100.00;97247.84;5157793;27;20133;-63
2023/10/27 04:33:15;;;;;;;44.78;3.75;;;;;;;4.22;100.00;97246.28;5157806;27;20047;-63
2023/10/27 04:35:42;;;;;;;15.02;3.22;;;;;;;4.37;100.00;97248.03;5157602;27;20145;-63
2023/10/27 04:38:08;;;;;;;27.73;3.67;;;;;;;4.34;100.00;97258.84;5157742;27;20053;-64
2023/10/27 04:40:34;;;;;;;5.68;3.20;;;;;;;4.43;100.00;97257.41;5157472;27;20133;-63
2023/10/27 04:43:00;;;;;;;34.67;3.58;;;;;;;4.34;100.00;97261.56;5157595;27;20043;-64
2023/10/27 04:45:26;;;;;;;40.58;4.10;;;;;;;4.48;100.00;97261.69;5157215;27;20526;-64
2023/10/27 04:47:53;;;;;;;13.80;2.95;;;;;;;4.04;100.00;97275.91;5157817;27;20047;-64
2023/10/27 04:50:19;;;;;;;37.30;4.07;;;;;;;4.40;100.00;97254.66;5158197;27;20110;-64
2023/10/27 04:52:45;;;;;;;38.38;3.75;;;;;;;4.52;100.00;97265.22;5161313;27;20051;-63
2023/10/27 04:55:11;;;;;;;11.73;3.25;;;;;;;4.52;100.00;97264.47;5160776;27;20062;-64
2023/10/27 04:57:38;;;;;;;64.10;4.45;;;;;;;4.60;100.00;97266.88;5160808;27;20335;-63
2023/10/27 05:00:05;;;;;;;117.20;5.65;;;;;;;4.49;100.00;97282.25;5161095;27;20141;-63
2023/10/27 05:02:31;;;;;;;62.05;4.80;;;;;;;4.65;100.00;97276.63;5160644;27;20366;-64
2023/10/27 05:04:57;;;;;;;13.77;3.78;;;;;;;4.65;100.00;97284.75;5160805;27;20099;-64
2023/10/27 05:07:24;;;;;;;69.00;4.05;;;;;;;4.57;100.00;97288.56;5160764;27;20046;-63
2023/10/27 05:09:51;;;;;;;83.78;5.72;;;;;;;4.66;100.00;97283.59;5160966;27;20054;-63
2023/10/27 05:12:17;;;;;;;7.82;4.07;;;;;;;4.63;100.00;97296.00;5160432;27;20050;-63
2023/10/27 05:14:43;;;;;;;27.15;4.85;;;;;;;4.69;100.00;97283.63;5160887;27;20141;-63
2023/10/27 05:17:09;;;;;;;16.70;3.92;;;;;;;4.89;100.00;97278.78;5160502;27;20133;-63
2023/10/27 05:19:35;;;;;;;35.40;4.85;;;;;;;4.82;100.00;97286.88;5160829;27;20047;-63
2023/10/27 05:22:04;;;;;;;56.20;4.45;;;;;;;4.77;100.00;97298.09;5160236;27;20135;-63
2023/10/27 05:24:30;;;;;;;76.72;5.68;;;;;;;4.80;100.00;97310.91;5160504;27;20065;-64
2023/10/27 05:26:56;;;;;;;8.80;4.47;;;;;;;4.96;100.00;97299.81;5160569;27;20046;-64
2023/10/27 05:29:22;;;;;;;21.48;4.72;;;;;;;4.98;100.00;97311.09;5160406;27;20054;-64
2023/10/27 05:31:48;;;;;;;9.18;4.55;;;;;;;4.99;100.00;97309.94;5160531;27;20046;-66
2023/10/27 05:34:15;;;;;;;10.48;4.95;;;;;;;4.95;100.00;97300.97;5160317;27;20146;-63
2023/10/27 05:36:41;;;;;;;42.60;5.18;;;;;;;5.04;100.00;97304.16;5160484;27;20050;-63
2023/10/27 05:39:08;;;;;;;52.80;5.63;;;;;;;4.78;100.00;97309.72;5159956;27;20481;-64
2023/10/27 05:41:34;;;;;;;16.23;5.15;;;;;;;4.86;100.00;97286.91;5160348;27;20307;-63
2023/10/27 05:44:00;;;;;;;11.00;5.35;;;;;;;4.90;100.00;97285.03;5159903;27;20042;-63
2023/10/27 05:46:26;;;;;;;44.67;5.07;;;;;;;4.83;100.00;97284.94;5160433;27;20066;-62
2023/10/27 05:48:51;;;;;;;68.20;6.47;;;;;;;5.13;100.00;97274.78;5159864;27;20061;-64
2023/10/27 05:51:17;;;;;;;67.55;5.85;;;;;;;5.08;100.00;97285.19;5160292;27;20070;-64
2023/10/27 05:53:43;;;;;;;44.63;7.40;;;;;;;5.14;100.00;97295.34;5159745;27;20206;-64
2023/10/27 05:56:10;;;;;;;39.53;6.38;;;;;;;5.22;100.00;97293.47;5160006;27;20092;-62
2023/10/27 05:58:36;;;;;;;16.02;5.32;;;;;;;5.50;100.00;97297.56;5159753;27;20133;-64
2023/10/27 06:01:03;;;;;;;19.38;5.88;;;;;;;5.52;100.00;97304.19;5159782;27;20047;-68
2023/10/27 06:03:29;;;;;;;36.72;5.60;;;;;;;5.48;100.00;97313.47;5159103;27;20404;-63
2023/10/27 06:05:55;;;;;;;45.35;6.53;;;;;;;5.42;100.00;97319.25;5159440;27;20059;-64
2023/10/27 06:08:21;;;;;;;42.53;7.65;;;;;;;5.48;100.00;97322.41;5159906;27;20329;-63
2023/10/27 06:10:47;;;;;;;32.67;6.22;;;;;;;5.52;100.00;97325.94;5159539;27;20099;-65
2023/10/27 06:13:13;;;;;;;43.10;7.07;;;;;;;5.51;100.00;97337.97;5159563;27;20397;-64
2023/10/27 06:15:40;;;;;;;40.15;6.20;;;;;;;5.47;100.00;97341.81;5159428;27;20046;-62
2023/10/27 06:18:05;;;;;;;19.55;6.15;;;;;;;5.52;100.00;97347.69;5159872;27;20091;-66
2023/10/27 06:20:31;;;;;;;29.48;7.80;;;;;;;5.52;100.00;97347.69;5159245;27;20141;-62
2023/10/27 06:22:57;;;;;;;25.50;6.05;;;;;;;5.48;100.00;97343.38;5159704;27;20047;-61
2023/10/27 06:25:25;;;;;;;50.00;7.05;;;;;;;5.55;100.00;97346.94;5159006;27;20053;-63
2023/10/27 06:27:51;;;;;;;43.22;6.72;;;;;;;5.43;100.00;97350.72;5159150;27;20141;-59
2023/10/27 06:30:20;;;;;;;35.53;6.30;;;;;;;5.40;100.00;97340.59;5159378;27;20107;-62
2023/10/27 06:32:46;;;;;;;46.70;6.18;;;;;;;5.50;100.00;97333.69;5158751;27;20081;-62
2023/10/27 06:35:12;;;;;;;24.83;5.40;;;;;;;5.59;100.00;97342.28;5159172;27;20047;-63
2023/10/27 06:37:38;;;;;;;64.82;7.97;;;;;;;5.59;100.00;97336.09;5158857;27;20160;-62
2023/10/27 06:40:05;;;;;;;30.20;6.07;;;;;;;5.67;100.00;97337.72;5159321;27;20210;-63
2023/10/27 06:42:31;;;;;;;87.72;7.80;;;;;;;5.48;100.00;97343.38;5158781;27;20147;-62
2023/10/27 06:44:57;;;;;;;30.77;5.55;;;;;;;5.59;100.00;97325.97;5159255;27;20051;-63
2023/10/27 06:47:24;;;;;;;63.50;6.47;;;;;;;5.64;100.00;97328.38;5158772;27;20057;-62
2023/10/27 06:49:51;;;;;;;41.40;6.78;;;;;;;5.75;100.00;97328.44;5159406;27;20051;-64
2023/10/27 06:52:17;;;;;;;73.53;6.60;;;;;;;5.83;100.00;97338.22;5158974;27;20047;-62
2023/10/27 06:54:43;;;;;;;76.90;6.88;;;;;;;5.74;100.00;97342.44;5158889;27;20087;-64
2023/10/27 06:57:11;;;;;;;130.23;9.23;;;;;;;5.80;100.00;97338.22;5158969;27;20058;-63
2023/10/27 06:59:37;;;;;;;20.98;5.00;;;;;;;5.83;100.00;97343.66;5158766;27;20328;-64
2023/10/27 07:02:03;;;;;;;64.15;7.28;;;;;;;5.75;100.00;97350.19;5158563;27;20111;-63
2023/10/27 07:04:30;;;;;;;45.55;6.50;;;;;;;6.00;100.00;97355.06;5158762;27;20054;-61
2023/10/27 07:06:56;;;;;;;99.32;8.10;;;;;;;5.81;100.00;97361.50;5158766;27;20149;-63
2023/10/27 07:09:22;;;;;;;81.80;8.43;;;;;;;5.93;100.00;97355.00;5158412;27;20078;-63
2023/10/27 07:11:47;;;;;;;119.82;7.80;;;;;;;5.95;100.00;97360.84;5158634;27;20419;-65
2023/10/27 07:14:14;;;;;;;36.90;6.63;;;;;;;5.97;100.00;97364.00;5158635;27;20141;-65
2023/10/27 07:16:40;;;;;;;148.63;8.18;;;;;;;6.04;100.00;97356.66;5158839;27;20067;-65
2023/10/27 07:19:06;;;;;;;112.18;7.78;;;;;;;5.92;100.00;97369.75;5158211;27;20046;-64
2023/10/27 07:21:34;;;;;;;86.80;7.25;;;;;;;5.93;100.00;97372.13;5158446;27;20069;-63
2023/10/27 07:23:59;;;;;;;44.75;6.90;;;;;;;6.18;100.00;97371.50;5158589;27;20141;-65
2023/10/27 07:26:26;;;;;;;59.60;8.20;;;;;;;6.15;100.00;97370.31;5158467;27;20062;-61
2023/10/27 07:28:52;;;;;;;126.97;8.65;;;;;;;6.06;100.00;97373.34;5149453;27;20133;-64
2023/10/27 07:31:18;;;;;;;24.42;6.10;;;;;;;5.65;100.00;97376.13;5152690;27;20057;-62
2023/10/27 07:33:44;;;;;;;46.55;6.63;;;;;;;6.17;100.00;97356.34;5158421;27;20061;-62
2023/10/27 07:36:10;;;;;;;46.53;7.65;;;;;;;6.07;100.00;97361.34;5158108;27;20133;-65
2023/10/27 07:38:37;;;;;;;44.53;7.72;;;;;;;6.23;100.00;97365.69;5158279;27;20103;-64
2023/10/27 07:41:04;;;;;;;55.67;9.00;;;;;;;6.37;100.00;97363.06;5157254;27;20046;-66
2023/10/27 07:43:31;;;;;;;127.05;10.80;;;;;;;6.36;100.00;97369.66;5158346;27;20055;-64
2023/10/27 07:45:57;;;;;;;50.05;8.93;;;;;;;6.22;100.00;97377.75;5158027;27;20057;-65
2023/10/27 07:48:23;;;;;;;49.50;9.05;;;;;;;6.52;100.00;97378.31;5158315;27;20050;-64
2023/10/27 07:50:48;;;;;;;78.03;9.60;;;;;;;6.36;100.00;97391.44;5157822;27;20095;-65
2023/10/27 07:53:14;;;;;;;69.45;12.07;;;;;;;6.24;100.00;97397.97;5157100;27;20138;-63
2023/10/27 07:55:41;;;;;;;88.38;11.10;;;;;;;6.25;100.00;97393.31;5157929;27;20050;-63
2023/10/27 07:58:07;;;;;;;46.30;8.70;;;;;;;6.36;100.00;97386.78;5157851;27;20055;-63
2023/10/27 08:00:33;;;;;;;84.05;9.63;;;;;;;6.65;100.00;97384.19;5158265;27;20141;-68
2023/10/27 08:02:59;;;;;;;93.32;8.88;;;;;;;6.73;100.00;97388.53;5157574;27;20051;-64
2023/10/27 08:05:25;;;;;;;88.28;8.57;;;;;;;6.77;100.00;97391.28;5158106;27;20050;-65
2023/10/27 08:07:51;;;;;;;49.03;9.07;;;;;;;6.65;100.00;97392.38;5157713;27;20416;-69
2023/10/27 08:10:19;;;;;;;98.75;11.00;;;;;;;6.89;100.00;97395.59;5158100;27;20056;-68
2023/10/27 08:12:46;;;;;;;51.25;7.65;;;;;;;6.60;100.00;97403.66;5157940;27;20111;-65
2023/10/27 08:15:12;;;;;;;59.22;10.50;;;;;;;6.44;100.00;97401.22;5157694;27;20137;-64
2023/10/27 08:17:38;;;;;;;59.22;11.25;;;;;;;7.09;100.00;97383.19;5157427;27;20051;-64
2023/10/27 08:20:05;;;;;;;104.78;13.75;;;;;;;7.12;100.00;97392.56;5157757;27;20042;-66
2023/10/27 08:22:32;;;;;;;82.70;12.18;;;;;;;7.14;100.00;97403.88;5157824;27;20457;-65
2023/10/27 08:24:58;;;;;;;74.22;11.43;;;;;;;6.89;100.00;97420.09;5158022;27;20195;-64
2023/10/27 08:27:24;;;;;;;74.63;11.07;;;;;;;7.01;100.00;97408.88;5161587;27;20129;-68
2023/10/27 08:29:53;;;;;;;170.82;14.38;;;;;;;7.02;100.00;97402.25;5160523;27;20059;-67
2023/10/27 08:32:21;;;;;;;65.47;11.45;;;;;;;7.11;100.00;97405.41;5161478;27;20058;-63
2023/10/27 08:34:47;;;;;;;109.90;11.32;;;;;;;7.40;100.00;97402.75;5161081;27;20061;-62
2023/10/27 08:37:13;;;;;;;70.32;12.95;;;;;;;7.54;100.00;97417.19;5161212;27;20137;-63
2023/10/27 08:39:40;;;;;;;66.53;11.68;;;;;;;7.52;100.00;97426.91;5160946;27;20050;-66
2023/10/27 08:42:07;;;;;;;58.75;12.95;;;;;;;7.51;100.00;97439.00;5161359;27;20415;-63
2023/10/27 08:44:33;;;;;;;71.90;13.27;;;;;;;7.64;100.00;97439.41;5160839;27;20429;-63
2023/10/27 08:47:01;;;;;;;52.40;12.57;;;;;;;7.42;100.00;97447.53;5160959;27;20054;-68
2023/10/27 08:49:26;;;;;;;68.35;11.95;;;;;;;7.42;100.00;97441.31;5161160;27;20069;-64
2023/10/27 08:51:52;;;;;;;69.40;13.70;;;;;;;7.22;100.00;97428.00;5160860;27;20145;-68
2023/10/27 08:54:19;;;;;;;33.65;10.55;;;;;;;7.21;100.00;97429.19;5160790;27;20412;-64
2023/10/27 08:56:46;;;;;;;63.70;12.95;;;;;;;7.63;100.00;97418.75;5160683;27;20050;-63
2023/10/27 08:59:13;;;;;;;38.28;13.48;;;;;;;7.71;100.00;97425.78;5160949;27;20091;-66
2023/10/27 09:01:39;;;;;;;51.70;14.82;;;;;;;7.83;100.00;97439.06;5159987;27;20050;-67
2023/10/27 09:04:06;;;;;;;56.80;15.40;;;;;;;7.94;100.00;97445.28;5160960;27;20042;-68
2023/10/27 09:06:32;;;;;;;54.45;14.68;;;;;;;7.98;100.00;97440.59;5160345;27;20051;-65
2023/10/27 09:08:58;;;;;;;78.05;16.75;;;;;;;7.91;100.00;97448.03;5160964;27;20058;-67
2023/10/27 09:11:24;;;;;;;69.57;15.25;;;;;;;7.85;100.00;97461.25;5160393;27;20055;-68
2023/10/27 09:13:50;;;;;;;76.65;17.70;;;;;;;7.99;100.00;97447.63;5160996;27;20141;-67
2023/10/27 09:16:24;;;;;;;61.80;16.35;;;;;;;8.08;100.00;97449.97;5160367;27;20096;-67
2023/10/27 09:18:51;;;;;;;52.05;17.77;;;;;;;8.16;100.00;97464.41;5160221;27;20397;-66
2023/10/27 09:21:29;;;;;;;63.35;18.73;;;;;;;8.16;100.00;97464.41;5160397;27;20426;-64
2023/10/27 09:23:55;;;;;;;78.18;19.52;;;;;;;8.27;100.00;97462.47;5160165;27;20137;-66
2023/10/27 09:26:27;;;;;;;62.63;17.23;;;;;;;8.23;100.00;97462.47;5160515;27;20156;-65
2023/10/27 09:28:59;;;;;;;69.03;18.23;;;;;;;8.16;100.00;97473.38;5160207;27;20058;-65
2023/10/27 09:31:32;;;;;;;39.45;16.77;;;;;;;8.14;100.00;97470.25;5160532;27;20046;-66
2023/10/27 09:34:16;;;;;;;56.10;16.75;;;;;;;8.23;100.00;97469.84;5160390;27;20047;-63
2023/10/27 09:36:44;;;;;;;50.75;16.95;;;;;;;8.34;100.00;97467.91;5159086;27;20348;-64
2023/10/27 09:39:10;;;;;;;47.80;17.95;;;;;;;8.49;100.00;97468.69;5160033;27;20046;-64
2023/10/27 09:41:40;;;;;;;61.55;17.98;;;;;;;8.48;100.00;97467.91;5160145;27;20061;-63
2023/10/27 09:44:07;;;;;;;51.42;17.45;;;;;;;8.57;100.00;97467.53;5159807;27;20153;-63
2023/10/27 09:46:38;;;;;;;70.60;18.17;;;;;;;8.59;100.00;97476.09;5159865;27;20141;-65
2023/10/27 09:49:06;;;;;;;56.47;18.00;;;;;;;8.67;100.00;97469.47;5160243;27;20137;-66
2023/10/27 09:51:36;;;;;;;60.22;18.58;;;;;;;8.60;100.00;97468.69;5159958;27;20412;-70
2023/10/27 09:54:05;;;;;;;61.83;20.42;;;;;;;8.68;100.00;97470.22;5160391;27;20412;-68
2023/10/27 09:56:31;;;;;;;44.17;18.05;;;;;;;8.80;100.00;97460.84;5159824;27;20149;-66
2023/10/27 09:59:00;;;;;;;63.47;19.27;;;;;;;8.85;100.00;97454.97;5160230;27;20078;-63
2023/10/27 10:01:27;;;;;;;48.42;21.17;;;;;;;8.81;100.00;97462.41;5159893;27;20312;-65
2023/10/27 10:03:53;;;;;;;60.13;18.52;;;;;;;8.66;100.00;97456.19;5159685;27;20142;-66
2023/10/27 10:06:23;;;;;;;67.10;20.75;;;;;;;8.97;100.00;97451.03;5159771;27;20099;-66
2023/10/27 10:09:09;;;;;;;77.57;20.40;;;;;;;8.99;100.00;97449.44;5159525;27;20417;-65
2023/10/27 10:11:37;;;;;;;66.05;21.80;;;;;;;8.68;100.00;97448.38;5159498;27;20050;-67
2023/10/27 10:14:04;;;;;;;66.88;22.77;;;;;;;8.94;100.00;97455.34;5159178;27;20438;-66
2023/10/27 10:16:39;;;;;;;58.65;20.92;;;;;;;9.12;100.00;97458.78;5159675;27;20140;-66
2023/10/27 10:19:05;;;;;;;65.10;23.33;;;;;;;9.10;100.00;97447.47;5159323;27;20138;-65
2023/10/27 10:21:35;;;;;;;58.33;21.05;;;;;;;8.95;100.00;97451.44;5159791;27;20149;-70
2023/10/27 10:24:11;;;;;;;53.10;21.58;;;;;;;8.72;100.00;97444.47;5159487;27;20149;-70
2023/10/27 10:27:05;;;;;;;60.28;19.42;;;;;;;9.29;100.00;97440.72;5159112;27;20053;-65
2023/10/27 10:29:33;;;;;;;63.17;21.02;;;;;;;9.32;100.00;97447.38;5159452;27;20142;-64
2023/10/27 10:32:31;;;;;;;46.40;18.30;;;;;;;9.37;100.00;97450.47;5159226;27;20073;-70
2023/10/27 10:35:26;;;;;;;56.47;19.52;;;;;;;9.53;100.00;97432.78;5159312;27;20057;-65
2023/10/27 10:37:53;;;;;;;52.45;20.25;;;;;;;9.55;100.00;97444.13;5159166;27;20042;-66
2023/10/27 10:40:23;;;;;;;47.30;17.42;;;;;;;9.55;100.00;97449.59;5158669;27;20536;-65
2023/10/27 10:43:17;;;;;;;42.75;15.52;;;;;;;9.40;100.00;97446.94;5159157;27;20042;-66
2023/10/27 10:45:44;;;;;;;;;;;;;;;9.69;100.00;97435.06;5159016;27;20420;-66
2023/10/27 10:48:10;;;;;;;44.63;16.38;;;;;;;9.76;100.00;97438.50;5158783;27;19949;-64
2023/10/27 10:50:36;;;;;;;36.95;15.32;;;;;;;9.62;100.00;97442.13;5158558;27;20449;-64
2023/10/27 10:53:12;;;;;;;42.20;15.98;;;;;;;9.65;100.00;97435.84;5159054;27;20050;-66
2023/10/27 10:55:39;;;;;;;41.67;16.20;;;;;;;9.80;100.00;97444.00;5158799;27;20053;-64
2023/10/27 10:58:05;;;;;;;38.95;16.15;;;;;;;9.81;100.00;97451.00;5158755;27;20339;-67
2023/10/27 11:00:35;;;;;;;49.65;18.00;;;;;;;9.88;100.00;97454.47;5158789;27;20061;-66
2023/10/27 11:03:07;;;;;;;52.13;19.02;;;;;;;9.88;100.00;97450.97;5158642;27;20051;-66
2023/10/27 11:05:33;;;;;;;44.85;17.05;;;;;;;9.89;100.00;97449.75;5158809;27;20050;-63
2023/10/27 11:08:00;;;;;;;42.53;16.73;;;;;;;9.93;100.00;97450.53;5158436;27;20051;-63
2023/10/27 11:10:26;;;;;;;41.65;16.40;;;;;;;9.95;100.00;97461.06;5158991;27;20074;-62
2023/10/27 11:12:53;;;;;;;40.88;16.88;;;;;;;9.93;100.00;97475.19;5158503;27;20423;-63
2023/10/27 11:15:43;;;;;;;44.70;17.70;;;;;;;10.00;100.00;97463.41;5158990;27;20089;-66
2023/10/27 11:18:11;;;;;;;50.53;20.45;;;;;;;9.95;100.00;97463.81;5158917;27;20158;-66
2023/10/27 11:20:38;;;;;;;55.97;18.45;;;;;;;9.95;100.00;97466.56;5158310;27;20050;-64
2023/10/27 11:23:08;;;;;;;43.88;18.02;;;;;;;10.03;100.00;97468.03;5158709;27;20165;-65